createdAt,value
2018-10-05T00:02:53.641Z,14.9
2018-10-05T00:07:51.591Z,14.8
2018-10-05T00:12:49.619Z,14.8
2018-10-05T00:17:47.709Z,14.7
2018-10-05T00:22:45.760Z,14.7
2018-10-05T00:27:43.551Z,14.6
2018-10-05T00:32:41.468Z,15.2
2018-10-05T00:37:39.574Z,14.6
2018-10-05T00:42:37.525Z,14.5
2018-10-05T00:47:35.447Z,14.5
2018-10-05T00:52:33.565Z,15
2018-10-05T00:57:31.638Z,13.8
2018-10-05T01:02:29.655Z,14.9
2018-10-05T01:07:27.703Z,14.3
2018-10-05T01:12:25.928Z,14.8
2018-10-05T01:17:23.970Z,14.2
2018-10-05T01:22:21.863Z,14.1
2018-10-05T01:27:19.762Z,14.1
2018-10-05T01:32:17.494Z,14.6
2018-10-05T01:37:15.616Z,13.5
2018-10-05T01:42:13.551Z,14.6
2018-10-05T01:47:11.479Z,14.5
2018-10-05T01:52:09.353Z,14.5
2018-10-05T01:57:07.519Z,14.4
2018-10-05T02:02:05.613Z,14.4
2018-10-05T02:07:03.854Z,13.3
2018-10-05T02:12:01.758Z,14.3
2018-10-05T02:16:59.807Z,13.7
2018-10-05T02:21:57.790Z,14.2
2018-10-05T02:26:55.955Z,13.6
2018-10-05T02:31:53.980Z,14.1
2018-10-05T02:36:52.087Z,13.5
2018-10-05T02:41:50.029Z,14.1
2018-10-05T02:46:48.360Z,13.4
2018-10-05T02:51:46.389Z,13.4
2018-10-05T02:56:44.538Z,13.9
2018-10-05T03:01:42.424Z,13.4
2018-10-05T03:06:40.361Z,13.3
2018-10-05T03:11:38.106Z,13.8
2018-10-05T03:16:36.182Z,13.2
2018-10-05T03:21:34.266Z,12.6
2018-10-05T03:26:32.295Z,13.7
2018-10-05T03:31:30.272Z,13.6
2018-10-05T03:36:28.326Z,13
2018-10-05T03:41:26.268Z,13
2018-10-05T03:46:24.315Z,12.9
2018-10-05T03:51:22.247Z,13.4
2018-10-05T03:56:20.114Z,13.4
2018-10-05T04:01:18.285Z,12.8
2018-10-05T04:06:16.177Z,12.7
2018-10-05T04:11:14.120Z,13.3
2018-10-05T04:16:12.178Z,12.7
2018-10-05T04:21:10.284Z,12.6
2018-10-05T04:26:08.434Z,13.2
2018-10-05T04:31:06.133Z,13.1
2018-10-05T04:36:04.097Z,12.5
2018-10-05T04:41:02.219Z,13.1
2018-10-05T04:46:00.473Z,12.5
2018-10-05T04:50:58.150Z,13
2018-10-05T04:55:56.083Z,12.9
2018-10-05T05:00:54.323Z,12.4
2018-10-05T05:05:52.518Z,12.3
2018-10-05T05:10:51.104Z,12.8
2018-10-05T05:15:49.061Z,12.8
2018-10-05T05:20:47.119Z,12.2
2018-10-05T05:25:45.478Z,12.2
2018-10-05T05:30:43.729Z,11.8
2018-10-05T05:35:41.573Z,12.1
2018-10-05T05:40:39.508Z,12.7
2018-10-05T05:45:37.620Z,12
2018-10-05T05:50:35.588Z,12.6
2018-10-05T05:55:33.811Z,12
2018-10-05T06:00:31.859Z,12
2018-10-05T06:05:29.923Z,12
2018-10-05T06:10:27.953Z,12.5
2018-10-05T06:15:25.838Z,11.9
2018-10-05T06:20:23.880Z,12.5
2018-10-05T06:25:21.881Z,11.9
2018-10-05T06:30:20.315Z,12.5
2018-10-05T06:35:18.161Z,12.5
2018-10-05T06:40:16.240Z,11.9
2018-10-05T06:45:14.613Z,12.4
2018-10-05T06:50:12.582Z,12.4
2018-10-05T06:55:10.676Z,12.4
2018-10-05T07:00:08.566Z,11.8
2018-10-05T07:05:06.823Z,11.9
2018-10-05T07:10:04.761Z,12.4
2018-10-05T07:15:02.809Z,11.8
2018-10-05T07:20:00.822Z,12.4
2018-10-05T07:24:59.617Z,12.3
2018-10-05T07:29:57.698Z,12.5
2018-10-05T07:34:55.701Z,11.9
2018-10-05T07:39:53.930Z,11.8
2018-10-05T07:44:52.004Z,12.5
2018-10-05T07:49:50.129Z,12.5
2018-10-05T07:54:48.166Z,12.6
2018-10-05T07:59:46.204Z,12.6
2018-10-05T08:04:44.356Z,12.6
2018-10-05T08:09:41.999Z,12.4
2018-10-05T08:14:40.153Z,12.7
2018-10-05T08:19:38.179Z,12.7
2018-10-05T08:24:35.892Z,12.7
2018-10-05T08:29:33.955Z,12.2
2018-10-05T08:34:32.165Z,12.8
2018-10-05T08:39:30.302Z,12.9
2018-10-05T08:44:28.282Z,12.3
2018-10-05T08:49:26.417Z,12.4
2018-10-05T08:54:24.380Z,13
2018-10-05T08:59:22.459Z,13
2018-10-05T09:04:20.543Z,12.6
2018-10-05T09:09:18.038Z,13.1
2018-10-05T09:14:16.050Z,13.2
2018-10-05T09:19:14.202Z,13.3
2018-10-05T09:24:12.406Z,12.8
2018-10-05T09:29:10.463Z,13.4
2018-10-05T09:34:08.379Z,13.4
2018-10-05T09:39:06.435Z,13.5
2018-10-05T09:44:04.542Z,13.5
2018-10-05T09:49:02.571Z,13.6
2018-10-05T09:54:00.182Z,13.6
2018-10-05T09:58:58.297Z,13.7
2018-10-05T10:03:56.494Z,13.8
2018-10-05T10:08:54.622Z,13.8
2018-10-05T10:13:52.762Z,13.9
2018-10-05T10:18:50.945Z,13.4
2018-10-05T10:23:49.283Z,14
2018-10-05T10:28:47.520Z,13.5
2018-10-05T10:33:45.872Z,13.6
2018-10-05T10:38:44.466Z,13.6
2018-10-05T10:43:42.751Z,14.3
2018-10-05T10:48:41.268Z,13.7
2018-10-05T10:53:39.094Z,13.8
2018-10-05T10:58:37.099Z,14.5
2018-10-05T11:03:35.446Z,14
2018-10-05T11:08:33.549Z,14.6
2018-10-05T11:13:31.440Z,14.7
2018-10-05T11:18:29.682Z,14.7
2018-10-05T11:23:27.823Z,14.3
2018-10-05T11:28:26.131Z,13.8
2018-10-05T11:33:24.456Z,14.9
2018-10-05T11:38:22.849Z,14.4
2018-10-05T11:43:20.858Z,15
2018-10-05T11:48:19.378Z,14
2018-10-05T11:53:17.410Z,15.2
2018-10-05T11:58:15.317Z,15.3
2018-10-05T12:03:13.101Z,15.3
2018-10-05T12:08:11.305Z,15.2
2018-10-05T12:13:09.731Z,15.5
2018-10-05T12:18:08.176Z,15
2018-10-05T12:23:06.600Z,15.1
2018-10-05T12:28:04.736Z,15.7
2018-10-05T12:33:02.964Z,15.6
2018-10-05T12:38:01.073Z,15.9
2018-10-05T12:42:59.082Z,16
2018-10-05T12:47:57.216Z,16.1
2018-10-05T12:52:55.472Z,16.1
2018-10-05T12:57:53.153Z,16.3
2018-10-05T13:02:51.482Z,15.8
2018-10-05T13:07:49.652Z,16.4
2018-10-05T13:12:47.520Z,16
2018-10-05T13:17:45.862Z,16
2018-10-05T13:22:44.046Z,15.8
2018-10-05T13:27:41.591Z,16.7
2018-10-05T13:32:39.804Z,16.5
2018-10-05T13:37:37.841Z,16.3
2018-10-05T13:42:36.068Z,17
2018-10-05T13:47:34.360Z,16.5
2018-10-05T13:52:33.630Z,16.6
2018-10-05T13:57:32.809Z,17.2
2018-10-05T14:02:31.017Z,17.3
2018-10-05T14:07:29.110Z,17.1
2018-10-05T14:12:27.366Z,17.4
2018-10-05T14:17:25.810Z,17.5
2018-10-05T14:22:23.721Z,17
2018-10-05T14:27:21.818Z,17.1
2018-10-05T14:32:19.919Z,17.7
2018-10-05T14:37:18.187Z,17.8
2018-10-05T14:42:16.548Z,17.9
2018-10-05T14:47:14.441Z,17.5
2018-10-05T14:52:12.727Z,17.5
2018-10-05T14:57:11.195Z,17.5
2018-10-05T15:02:09.676Z,17.6
2018-10-05T15:07:07.909Z,17.7
2018-10-05T15:12:06.321Z,17.7
2018-10-05T15:17:04.612Z,17.7
2018-10-05T15:22:03.036Z,17.7
2018-10-05T15:27:01.468Z,17.8
2018-10-05T15:31:59.575Z,17.6
2018-10-05T15:36:57.700Z,17.9
2018-10-05T15:41:55.866Z,18.5
2018-10-05T15:46:54.103Z,18
2018-10-05T15:51:52.358Z,18.5
2018-10-05T15:56:50.792Z,18.1
2018-10-05T16:01:49.239Z,17.9
2018-10-05T16:06:47.738Z,18.1
2018-10-05T16:11:46.219Z,18.6
2018-10-05T16:16:44.522Z,18.6
2018-10-05T16:21:44.080Z,18.6
2018-10-05T16:26:42.430Z,18.6
2018-10-05T16:31:40.960Z,17.6
2018-10-05T16:36:39.069Z,18
2018-10-05T16:41:37.142Z,18.6
2018-10-05T16:46:35.342Z,18.1
2018-10-05T16:51:33.567Z,18.1
2018-10-05T16:56:32.019Z,18.6
2018-10-05T17:01:29.931Z,18.6
2018-10-05T17:06:28.041Z,18.6
2018-10-05T17:11:26.388Z,17.8
2018-10-05T17:16:24.427Z,18.6
2018-10-05T17:21:22.661Z,18.6
2018-10-05T17:26:20.775Z,18.5
2018-10-05T17:31:18.999Z,18.5
2018-10-05T17:36:17.047Z,18.5
2018-10-05T17:41:15.093Z,18.5
2018-10-05T17:46:13.313Z,18.5
2018-10-05T17:51:11.758Z,17.6
2018-10-05T17:56:09.781Z,17.9
2018-10-05T18:01:08.125Z,18.4
2018-10-05T18:06:06.059Z,18.4
2018-10-05T18:11:04.368Z,18.4
2018-10-05T18:16:02.692Z,18.4
2018-10-05T18:21:01.094Z,17.6
2018-10-05T18:25:59.184Z,18.3
2018-10-05T18:30:57.201Z,18.3
2018-10-05T18:35:55.649Z,18.3
2018-10-05T18:40:53.879Z,18.3
2018-10-05T18:45:52.145Z,18.2
2018-10-05T18:50:50.390Z,18.2
2018-10-05T18:55:48.177Z,17.6
2018-10-05T19:00:46.677Z,18.1
2018-10-05T19:05:44.945Z,17.6
2018-10-05T19:10:43.117Z,18.1
2018-10-05T19:15:41.142Z,18.1
2018-10-05T19:20:39.396Z,17.9
2018-10-05T19:25:37.509Z,18
2018-10-05T19:30:35.617Z,18
2018-10-05T19:35:33.873Z,17.4
2018-10-05T19:40:31.671Z,17.9
2018-10-05T19:45:29.732Z,17.9
2018-10-05T19:50:27.825Z,17.8
2018-10-05T19:55:25.983Z,17.8
2018-10-05T20:00:24.510Z,17.8
2018-10-05T20:05:22.650Z,17.7
2018-10-05T20:10:20.687Z,16.9
2018-10-05T20:15:18.964Z,17.6
2018-10-05T20:20:17.250Z,17.6
2018-10-05T20:25:14.492Z,17.6
2018-10-05T20:30:12.565Z,16.5
2018-10-05T20:35:10.141Z,17.5
2018-10-05T20:40:08.325Z,17.5
2018-10-05T20:45:06.302Z,17.5
2018-10-05T20:50:04.514Z,17.4
2018-10-05T20:55:02.573Z,17.4
2018-10-05T21:00:00.929Z,17.3
2018-10-05T21:04:59.195Z,16.8
2018-10-05T21:09:57.333Z,17.3
2018-10-05T21:14:55.417Z,16.6
2018-10-05T21:19:53.976Z,16.6
2018-10-05T21:24:52.600Z,17.1
2018-10-05T21:29:51.458Z,17.1
2018-10-05T21:34:50.003Z,16.6
2018-10-05T21:39:48.264Z,16.5
2018-10-05T21:44:46.573Z,17
2018-10-05T21:49:44.991Z,17
2018-10-05T21:54:43.176Z,16.9
2018-10-05T21:59:41.439Z,16.9
2018-10-05T22:04:39.539Z,16.9
2018-10-05T22:09:37.957Z,16.8
2018-10-05T22:14:36.252Z,16.2
2018-10-05T22:19:34.563Z,16.2
2018-10-05T22:24:32.544Z,16.7
2018-10-05T22:29:30.733Z,16.6
2018-10-05T22:34:28.700Z,16
2018-10-05T22:39:26.950Z,16.5
2018-10-05T22:44:25.286Z,16.5
2018-10-05T22:49:23.499Z,15.9
2018-10-05T22:54:21.673Z,16.4
2018-10-05T22:59:19.728Z,16.4
2018-10-05T23:04:17.875Z,16.4
2018-10-05T23:09:16.570Z,15.6
2018-10-05T23:14:14.820Z,16.3
2018-10-05T23:19:13.040Z,16.3
2018-10-05T23:24:11.274Z,15.6
2018-10-05T23:29:09.390Z,16.2
2018-10-05T23:34:07.346Z,16.1
2018-10-05T23:39:05.717Z,15.6
2018-10-05T23:44:03.648Z,16.1
2018-10-05T23:49:01.747Z,16
2018-10-05T23:53:59.915Z,16
2018-10-05T23:58:58.002Z,15.9
